Time;durP1;ratioP1;P1;durP2;ratioP2;P2;SDS_P1;SDS_P2;PMS_P1;PMS_P2;Temp;Humidity;BMP_temperature;BMP_pressure;BME280_temperature;BME280_humidity;BME280_pressure;Samples;Min_cycle;Max_cycle;Signal;HPM_P1;HPM_P2
2022/03/10 00:00:29;;;;;;;6.75;6.15;;;;;;;;;;5033294;28;20132;-71
2022/03/10 00:02:54;;;;;;;10.55;8.35;;;;;;;;;;5031805;28;20132;-69
2022/03/10 00:05:21;;;;;;;7.80;7.00;;;;;;;;;;5033080;28;20045;-70
2022/03/10 00:07:47;;;;;;;6.72;6.15;;;;;;;;;;5032716;28;20103;-70
2022/03/10 00:10:13;;;;;;;9.23;8.32;;;;;;;;;;5033144;28;20509;-70
2022/03/10 00:12:45;;;;;;;7.55;6.70;;;;;;;;;;5015162;28;20048;-70
2022/03/10 00:15:11;;;;;;;8.77;6.65;;;;;;;;;;5033020;28;20420;-69
2022/03/10 00:17:37;;;;;;;6.60;6.00;;;;;;;;;;5032567;28;20046;-69
2022/03/10 00:20:03;;;;;;;5.28;4.80;;;;;;;;;;5032950;28;20529;-69
2022/03/10 00:22:29;;;;;;;7.22;6.53;;;;;;;;;;5031319;28;20075;-70
2022/03/10 00:24:55;;;;;;;6.18;5.43;;;;;;;;;;5032862;28;20132;-70
2022/03/10 00:27:21;;;;;;;5.90;4.95;;;;;;;;;;5032129;28;20057;-69
2022/03/10 00:29:47;;;;;;;7.25;5.97;;;;;;;;;;5032573;28;20115;-69
2022/03/10 00:32:13;;;;;;;4.53;4.13;;;;;;;;;;5032651;28;20591;-70
2022/03/10 00:34:39;;;;;;;5.55;4.55;;;;;;;;;;5032616;28;20046;-70
2022/03/10 00:37:05;;;;;;;7.22;6.13;;;;;;;;;;5032344;28;20096;-70
2022/03/10 00:39:31;;;;;;;5.07;4.68;;;;;;;;;;5031047;28;20116;-70
2022/03/10 00:41:57;;;;;;;6.47;5.80;;;;;;;;;;5014596;28;20564;-70
2022/03/10 00:44:23;;;;;;;6.38;5.30;;;;;;;;;;5032586;28;20048;-70
2022/03/10 00:46:48;;;;;;;5.60;5.20;;;;;;;;;;5032136;28;20048;-70
2022/03/10 00:49:14;;;;;;;6.22;5.68;;;;;;;;;;5014612;28;20057;-69
2022/03/10 00:51:41;;;;;;;7.30;4.43;;;;;;;;;;5031308;28;20130;-70
2022/03/10 00:54:07;;;;;;;5.97;5.00;;;;;;;;;;5032344;28;20124;-70
2022/03/10 00:56:33;;;;;;;7.45;6.75;;;;;;;;;;5031471;28;20050;-70
2022/03/10 00:58:58;;;;;;;5.65;4.20;;;;;;;;;;5032214;28;20421;-70
2022/03/10 01:01:24;;;;;;;5.60;5.10;;;;;;;;;;5031921;28;20041;-71
2022/03/10 01:03:50;;;;;;;6.70;6.05;;;;;;;;;;5032016;28;20056;-70
2022/03/10 01:06:16;;;;;;;8.05;7.38;;;;;;;;;;5032069;28;20045;-70
2022/03/10 01:08:42;;;;;;;9.40;8.57;;;;;;;;;;5030918;28;20049;-70
2022/03/10 01:11:08;;;;;;;8.77;6.88;;;;;;;;;;5032891;28;20041;-70
2022/03/10 01:13:33;;;;;;;9.80;8.90;;;;;;;;;;5014368;28;20041;-70
2022/03/10 01:15:59;;;;;;;8.55;6.72;;;;;;;;;;5032125;28;20131;-70
2022/03/10 01:18:25;;;;;;;8.73;7.93;;;;;;;;;;5031861;28;20071;-70
2022/03/10 01:20:51;;;;;;;9.57;7.40;;;;;;;;;;5031833;28;20069;-70
2022/03/10 01:23:17;;;;;;;10.45;7.25;;;;;;;;;;5031209;28;20049;-70
2022/03/10 01:25:42;;;;;;;8.63;7.82;;;;;;;;;;5030997;28;20037;-70
2022/03/10 01:28:08;;;;;;;9.88;7.93;;;;;;;;;;5031492;28;20075;-70
2022/03/10 01:30:34;;;;;;;10.27;8.98;;;;;;;;;;5031361;28;20117;-70
2022/03/10 01:33:00;;;;;;;11.80;7.63;;;;;;;;;;5031682;28;20856;-70
2022/03/10 01:35:26;;;;;;;10.88;8.38;;;;;;;;;;5030892;28;20517;-70
2022/03/10 01:37:52;;;;;;;10.60;9.48;;;;;;;;;;5030564;28;20053;-70
2022/03/10 01:40:18;;;;;;;12.23;9.10;;;;;;;;;;5031268;28;20049;-70
2022/03/10 01:42:44;;;;;;;7.88;7.18;;;;;;;;;;5032986;28;20041;-69
2022/03/10 01:45:10;;;;;;;8.38;7.43;;;;;;;;;;5033257;28;20124;-70
2022/03/10 01:47:37;;;;;;;9.65;8.65;;;;;;;;;;5031191;28;20537;-70
2022/03/10 01:50:03;;;;;;;7.95;6.93;;;;;;;;;;5031430;28;20043;-71
2022/03/10 01:52:29;;;;;;;6.72;6.20;;;;;;;;;;5031293;28;20400;-71
2022/03/10 01:54:56;;;;;;;7.47;6.78;;;;;;;;;;5013258;28;20038;-70
2022/03/10 01:57:23;;;;;;;10.65;9.70;;;;;;;;;;5013028;28;20231;-70
2022/03/10 01:59:48;;;;;;;13.07;9.40;;;;;;;;;;5030947;28;20041;-70
2022/03/10 02:02:15;;;;;;;13.15;10.35;;;;;;;;;;5030923;28;20037;-70
2022/03/10 02:04:41;;;;;;;9.88;8.93;;;;;;;;;;5029697;28;20099;-70
2022/03/10 02:10:16;;;;;;;12.40;10.57;;;;;;;;;;5029509;28;20045;-70
2022/03/10 02:12:37;;;;;;;10.70;9.70;;;;;;;;;;5030587;28;20390;-70
2022/03/10 02:17:58;;;;;;;9.25;8.52;;;;;;;;;;5030265;28;20051;-70
2022/03/10 02:20:24;;;;;;;12.57;11.35;;;;;;;;;;5030727;28;20046;-70
2022/03/10 02:22:50;;;;;;;11.25;10.07;;;;;;;;;;5030332;28;20476;-71
2022/03/10 02:25:16;;;;;;;11.60;10.50;;;;;;;;;;5030530;28;20050;-70
2022/03/10 02:27:42;;;;;;;13.70;12.20;;;;;;;;;;5012316;28;20064;-71
2022/03/10 02:30:08;;;;;;;12.75;11.52;;;;;;;;;;5012874;28;20048;-70
2022/03/10 02:32:34;;;;;;;9.25;7.60;;;;;;;;;;5012660;28;20041;-70
2022/03/10 02:35:01;;;;;;;12.70;11.40;;;;;;;;;;5029915;28;20123;-70
2022/03/10 02:37:26;;;;;;;9.80;9.00;;;;;;;;;;5012263;28;20096;-70
2022/03/10 02:39:52;;;;;;;13.60;12.30;;;;;;;;;;5029041;28;20128;-70
2022/03/10 02:42:18;;;;;;;10.25;8.90;;;;;;;;;;5029853;28;20056;-70
2022/03/10 02:44:45;;;;;;;12.65;10.25;;;;;;;;;;5029884;28;20041;-71
2022/03/10 02:47:11;;;;;;;12.82;11.55;;;;;;;;;;5029791;28;20096;-70
2022/03/10 02:49:39;;;;;;;10.23;8.10;;;;;;;;;;5030042;28;20049;-71
2022/03/10 02:52:05;;;;;;;11.95;8.63;;;;;;;;;;5029903;28;20033;-70
2022/03/10 02:54:31;;;;;;;8.55;7.13;;;;;;;;;;5012372;28;20421;-70
2022/03/10 02:57:00;;;;;;;8.35;7.53;;;;;;;;;;5029345;28;20033;-70
2022/03/10 02:59:26;;;;;;;10.60;9.60;;;;;;;;;;5030128;28;20041;-70
2022/03/10 03:01:51;;;;;;;9.68;8.77;;;;;;;;;;5028368;28;20583;-71
2022/03/10 03:04:17;;;;;;;10.77;9.68;;;;;;;;;;5028591;28;20071;-70
2022/03/10 03:06:43;;;;;;;11.27;8.95;;;;;;;;;;5028212;28;20063;-71
2022/03/10 03:09:09;;;;;;;7.18;6.55;;;;;;;;;;5028245;28;20053;-71
2022/03/10 03:11:35;;;;;;;10.60;9.35;;;;;;;;;;5029895;28;20522;-70
2022/03/10 03:14:04;;;;;;;12.88;8.63;;;;;;;;;;5027831;28;20429;-70
2022/03/10 03:16:30;;;;;;;11.93;10.32;;;;;;;;;;5029623;28;20045;-70
2022/03/10 03:18:56;;;;;;;13.32;9.75;;;;;;;;;;5029302;28;20152;-70
2022/03/10 03:21:23;;;;;;;12.82;7.78;;;;;;;;;;5011957;28;20037;-70
2022/03/10 03:23:49;;;;;;;11.93;10.05;;;;;;;;;;5029280;28;20049;-70
2022/03/10 03:26:17;;;;;;;13.80;11.55;;;;;;;;;;5029512;28;20049;-69
2022/03/10 03:28:43;;;;;;;12.02;10.48;;;;;;;;;;5029143;28;20064;-70
2022/03/10 03:31:09;;;;;;;6.85;6.15;;;;;;;;;;5028819;28;20029;-70
2022/03/10 03:33:36;;;;;;;9.70;8.80;;;;;;;;;;5010762;28;20042;-70
2022/03/10 03:36:02;;;;;;;12.82;10.20;;;;;;;;;;5026582;28;20417;-71
2022/03/10 03:38:27;;;;;;;6.63;5.97;;;;;;;;;;5029093;28;20049;-70
2022/03/10 03:40:53;;;;;;;11.38;9.55;;;;;;;;;;5028261;28;20049;-70
2022/03/10 03:43:19;;;;;;;11.80;8.52;;;;;;;;;;5029461;28;20093;-70
2022/03/10 03:45:45;;;;;;;9.63;8.65;;;;;;;;;;5029322;28;20064;-71
2022/03/10 03:48:11;;;;;;;11.25;9.90;;;;;;;;;;5029706;28;20057;-72
2022/03/10 03:50:37;;;;;;;12.50;9.77;;;;;;;;;;5029785;28;20513;-71
2022/03/10 03:53:03;;;;;;;6.70;5.72;;;;;;;;;;5012060;28;20045;-71
2022/03/10 03:55:28;;;;;;;6.60;5.95;;;;;;;;;;5030047;28;20076;-71
2022/03/10 03:57:54;;;;;;;11.73;10.52;;;;;;;;;;5029258;28;20049;-70
2022/03/10 04:00:20;;;;;;;11.40;9.23;;;;;;;;;;5028633;28;20029;-71
2022/03/10 04:02:46;;;;;;;9.98;7.88;;;;;;;;;;5027388;28;20540;-71
2022/03/10 04:05:12;;;;;;;9.48;5.80;;;;;;;;;;5029286;28;20044;-71
2022/03/10 04:07:39;;;;;;;6.82;5.93;;;;;;;;;;5028905;28;20057;-70
2022/03/10 04:10:05;;;;;;;13.82;8.20;;;;;;;;;;5011364;28;20412;-69
2022/03/10 04:12:31;;;;;;;16.50;5.60;;;;;;;;;;5029081;28;20136;-69
2022/03/10 04:14:57;;;;;;;18.20;7.15;;;;;;;;;;5011246;28;20034;-69
2022/03/10 04:17:23;;;;;;;12.05;7.45;;;;;;;;;;5026409;28;20096;-70
2022/03/10 04:19:48;;;;;;;11.23;5.68;;;;;;;;;;5028901;28;20041;-69
2022/03/10 04:22:14;;;;;;;10.93;7.95;;;;;;;;;;5028582;28;20141;-71
2022/03/10 04:24:40;;;;;;;10.60;7.13;;;;;;;;;;5029260;28;20033;-73
2022/03/10 04:27:06;;;;;;;10.25;9.02;;;;;;;;;;5030004;28;20047;-73
2022/03/10 04:29:35;;;;;;;7.68;6.28;;;;;;;;;;5015445;28;20136;-75
2022/03/10 04:32:01;;;;;;;10.15;8.05;;;;;;;;;;5033474;28;20044;-74
2022/03/10 04:34:26;;;;;;;7.18;6.20;;;;;;;;;;5032549;28;20069;-74
2022/03/10 04:36:52;;;;;;;8.98;7.03;;;;;;;;;;5002430;28;20050;-76
2022/03/10 04:39:18;;;;;;;7.10;6.47;;;;;;;;;;4998447;28;20129;-75
2022/03/10 04:41:44;;;;;;;12.45;9.18;;;;;;;;;;5023080;28;20044;-76
2022/03/10 04:44:10;;;;;;;6.03;5.43;;;;;;;;;;5034639;28;20509;-75
2022/03/10 04:46:36;;;;;;;6.65;5.35;;;;;;;;;;5032074;28;20420;-75
2022/03/10 04:49:03;;;;;;;6.60;5.28;;;;;;;;;;5021611;28;20063;-76
2022/03/10 04:51:28;;;;;;;9.23;7.82;;;;;;;;;;5012222;28;20033;-76
2022/03/10 04:53:54;;;;;;;9.48;7.00;;;;;;;;;;5030163;28;20048;-76
2022/03/10 04:56:23;;;;;;;12.80;8.25;;;;;;;;;;5030160;28;20120;-76
2022/03/10 04:58:49;;;;;;;7.60;6.22;;;;;;;;;;5029222;28;20128;-76
2022/03/10 05:01:15;;;;;;;10.32;7.78;;;;;;;;;;5029044;28;20033;-75
2022/03/10 05:03:41;;;;;;;8.80;5.28;;;;;;;;;;5030028;28;20057;-75
2022/03/10 05:06:07;;;;;;;9.23;6.82;;;;;;;;;;5010941;28;20116;-74
2022/03/10 05:08:34;;;;;;;19.50;8.90;;;;;;;;;;5029266;28;20057;-75
2022/03/10 05:10:59;;;;;;;9.25;7.95;;;;;;;;;;5011478;28;20045;-74
2022/03/10 05:13:25;;;;;;;6.55;5.72;;;;;;;;;;5028977;28;20034;-75
2022/03/10 05:15:51;;;;;;;8.35;5.65;;;;;;;;;;5028789;28;20048;-75
2022/03/10 05:18:17;;;;;;;10.30;7.75;;;;;;;;;;5011331;28;20065;-75
2022/03/10 05:20:45;;;;;;;10.55;7.32;;;;;;;;;;5029080;28;20103;-74
2022/03/10 05:23:11;;;;;;;11.50;5.93;;;;;;;;;;5028232;28;20071;-75
2022/03/10 05:25:38;;;;;;;9.27;7.38;;;;;;;;;;5029660;28;20041;-73
2022/03/10 05:28:05;;;;;;;5.55;5.07;;;;;;;;;;5029652;28;20076;-75
2022/03/10 05:30:31;;;;;;;12.05;8.07;;;;;;;;;;5029151;28;20045;-76
2022/03/10 05:32:57;;;;;;;10.05;7.22;;;;;;;;;;5029944;28;20052;-74
2022/03/10 05:35:25;;;;;;;9.80;6.80;;;;;;;;;;5029696;28;20045;-75
2022/03/10 05:37:51;;;;;;;8.63;7.65;;;;;;;;;;5028140;28;20601;-74
2022/03/10 05:40:20;;;;;;;12.75;7.32;;;;;;;;;;5029459;28;20127;-74
2022/03/10 05:43:10;;;;;;;11.23;8.27;;;;;;;;;;5030867;28;20128;-74
2022/03/10 05:45:36;;;;;;;9.40;8.15;;;;;;;;;;5027926;28;20037;-74
2022/03/10 05:48:01;;;;;;;7.47;6.53;;;;;;;;;;5028492;28;20129;-74
2022/03/10 05:50:27;;;;;;;14.35;8.80;;;;;;;;;;5026676;28;20045;-75
2022/03/10 05:52:53;;;;;;;10.70;9.68;;;;;;;;;;5027912;28;20052;-75
2022/03/10 05:55:20;;;;;;;11.85;7.90;;;;;;;;;;5025527;28;20045;-75
2022/03/10 05:57:46;;;;;;;11.38;9.38;;;;;;;;;;5015977;28;20038;-72
2022/03/10 06:00:14;;;;;;;8.10;7.20;;;;;;;;;;5029440;28;20132;-72
2022/03/10 06:02:43;;;;;;;5.05;4.63;;;;;;;;;;5003694;28;20505;-73
2022/03/10 06:05:15;;;;;;;7.72;6.10;;;;;;;;;;5011335;28;20045;-73
2022/03/10 06:07:41;;;;;;;11.30;7.53;;;;;;;;;;5011371;28;20052;-73
2022/03/10 06:10:07;;;;;;;9.85;6.68;;;;;;;;;;5028432;28;20040;-73
2022/03/10 06:12:39;;;;;;;14.70;8.20;;;;;;;;;;5029123;28;20041;-73
2022/03/10 06:15:10;;;;;;;15.10;4.30;;;;;;;;;;5029923;28;20263;-75
2022/03/10 06:17:36;;;;;;;7.32;4.40;;;;;;;;;;5024478;28;20033;-74
2022/03/10 06:20:02;;;;;;;7.05;6.03;;;;;;;;;;5026511;28;20477;-75
2022/03/10 06:22:29;;;;;;;9.27;6.53;;;;;;;;;;5025339;28;20042;-77
2022/03/10 06:24:55;;;;;;;4.85;4.45;;;;;;;;;;5027548;28;20037;-77
2022/03/10 06:27:22;;;;;;;6.40;5.13;;;;;;;;;;5010695;28;20401;-77
2022/03/10 06:29:48;;;;;;;7.57;6.47;;;;;;;;;;5009752;28;20068;-75
2022/03/10 06:32:16;;;;;;;9.00;8.05;;;;;;;;;;5009061;28;20049;-76
2022/03/10 06:34:42;;;;;;;8.63;7.82;;;;;;;;;;5026095;28;20045;-76
2022/03/10 06:37:07;;;;;;;10.10;7.82;;;;;;;;;;5026125;28;20058;-75
2022/03/10 06:39:33;;;;;;;6.65;5.43;;;;;;;;;;5006428;28;20521;-75
2022/03/10 06:41:59;;;;;;;7.60;5.55;;;;;;;;;;5026503;28;20038;-73
2022/03/10 06:44:26;;;;;;;5.78;5.18;;;;;;;;;;5024725;28;20042;-74
2022/03/10 06:46:52;;;;;;;8.07;6.22;;;;;;;;;;5010763;28;20065;-74
2022/03/10 06:49:18;;;;;;;7.25;6.38;;;;;;;;;;5027326;28;20257;-75
2022/03/10 06:51:43;;;;;;;8.15;5.93;;;;;;;;;;5026659;28;20037;-76
2022/03/10 06:54:10;;;;;;;9.30;6.40;;;;;;;;;;4993261;28;20041;-75
2022/03/10 06:56:38;;;;;;;6.50;5.22;;;;;;;;;;5028347;28;20038;-75
2022/03/10 06:59:04;;;;;;;6.93;5.78;;;;;;;;;;5028054;28;20044;-77
2022/03/10 07:01:30;;;;;;;7.00;6.40;;;;;;;;;;5028328;28;20049;-72
2022/03/10 07:03:57;;;;;;;6.07;5.25;;;;;;;;;;5027843;28;20056;-74
2022/03/10 07:06:23;;;;;;;5.00;4.60;;;;;;;;;;5027602;28;20191;-75
2022/03/10 07:08:49;;;;;;;7.82;7.13;;;;;;;;;;5025911;28;20057;-75
2022/03/10 07:11:15;;;;;;;6.65;5.47;;;;;;;;;;5028350;28;20037;-75
2022/03/10 07:13:41;;;;;;;9.20;7.90;;;;;;;;;;5028582;28;20049;-74
2022/03/10 07:16:07;;;;;;;12.63;6.25;;;;;;;;;;5031069;28;20033;-75
2022/03/10 07:18:34;;;;;;;6.50;5.28;;;;;;;;;;5016933;28;20576;-76
2022/03/10 07:21:00;;;;;;;5.78;5.28;;;;;;;;;;5029959;28;20049;-74
2022/03/10 07:23:26;;;;;;;4.50;4.10;;;;;;;;;;5028049;28;20072;-75
2022/03/10 07:25:51;;;;;;;5.30;3.95;;;;;;;;;;5026436;28;20025;-74
2022/03/10 07:28:18;;;;;;;6.18;4.00;;;;;;;;;;5026958;28;20148;-73
2022/03/10 07:30:43;;;;;;;3.00;2.80;;;;;;;;;;5026402;28;20125;-73
2022/03/10 07:33:09;;;;;;;4.40;4.10;;;;;;;;;;5026909;28;20049;-73
2022/03/10 07:35:35;;;;;;;4.00;3.58;;;;;;;;;;5026286;28;20129;-73
2022/03/10 07:38:01;;;;;;;4.90;4.10;;;;;;;;;;5026647;28;20063;-73
2022/03/10 07:40:27;;;;;;;4.00;3.63;;;;;;;;;;5026344;28;20037;-73
2022/03/10 07:42:53;;;;;;;3.90;3.60;;;;;;;;;;5026757;28;20053;-73
2022/03/10 07:45:19;;;;;;;3.97;3.67;;;;;;;;;;5029012;28;20069;-76
2022/03/10 07:47:45;;;;;;;3.78;3.58;;;;;;;;;;5031220;28;20054;-76
2022/03/10 07:50:11;;;;;;;4.25;3.85;;;;;;;;;;5030442;28;20053;-76
2022/03/10 07:52:37;;;;;;;4.40;4.00;;;;;;;;;;5032591;28;20036;-76
2022/03/10 07:55:05;;;;;;;6.03;3.45;;;;;;;;;;5033262;28;20636;-76
2022/03/10 07:57:31;;;;;;;3.95;3.65;;;;;;;;;;5015844;28;20453;-76
2022/03/10 07:59:57;;;;;;;4.28;3.97;;;;;;;;;;5033172;28;20103;-75
2022/03/10 08:02:23;;;;;;;4.13;3.80;;;;;;;;;;5033262;28;20406;-75
2022/03/10 08:04:49;;;;;;;4.50;4.13;;;;;;;;;;5037514;28;20395;-77
2022/03/10 08:07:15;;;;;;;5.65;3.50;;;;;;;;;;5037893;28;20052;-75
2022/03/10 08:09:41;;;;;;;2.90;2.70;;;;;;;;;;5036927;28;20053;-78
2022/03/10 08:12:08;;;;;;;6.80;3.65;;;;;;;;;;5038308;28;20038;-77
2022/03/10 08:14:34;;;;;;;5.85;3.25;;;;;;;;;;5037962;28;20052;-75
2022/03/10 08:17:00;;;;;;;4.60;3.97;;;;;;;;;;5038061;28;20029;-76
2022/03/10 08:19:26;;;;;;;6.45;4.25;;;;;;;;;;5020069;28;20576;-76
2022/03/10 08:21:52;;;;;;;2.80;2.70;;;;;;;;;;5038339;28;20488;-75
2022/03/10 08:24:18;;;;;;;3.63;3.33;;;;;;;;;;5021205;28;20083;-75
2022/03/10 08:26:44;;;;;;;4.90;4.25;;;;;;;;;;5039627;28;20037;-76
2022/03/10 08:29:09;;;;;;;3.58;2.92;;;;;;;;;;5037590;28;20141;-75
2022/03/10 08:31:35;;;;;;;2.70;2.60;;;;;;;;;;5037035;28;20056;-75
2022/03/10 08:34:01;;;;;;;5.78;3.63;;;;;;;;;;5035577;28;20044;-74
2022/03/10 08:36:27;;;;;;;3.63;3.33;;;;;;;;;;5034886;28;20072;-75
2022/03/10 08:38:53;;;;;;;3.58;3.35;;;;;;;;;;5006380;28;20097;-75
2022/03/10 08:41:19;;;;;;;4.20;3.08;;;;;;;;;;5008811;28;20592;-76
2022/03/10 08:43:45;;;;;;;3.75;3.45;;;;;;;;;;5029204;28;20041;-76
2022/03/10 08:46:11;;;;;;;3.65;2.78;;;;;;;;;;5025115;28;20445;-76
2022/03/10 08:48:39;;;;;;;4.07;3.13;;;;;;;;;;5025819;28;20060;-75
2022/03/10 08:51:04;;;;;;;4.50;3.63;;;;;;;;;;5006613;28;20060;-76
2022/03/10 08:53:31;;;;;;;3.28;3.08;;;;;;;;;;5029248;28;20029;-76
2022/03/10 08:55:57;;;;;;;2.85;2.65;;;;;;;;;;5035548;28;20043;-75
2022/03/10 08:58:24;;;;;;;3.53;3.33;;;;;;;;;;5016289;28;20066;-76
2022/03/10 09:00:50;;;;;;;3.10;2.90;;;;;;;;;;5016265;28;20103;-75
2022/03/10 09:03:16;;;;;;;3.70;3.28;;;;;;;;;;5020088;28;20068;-74
2022/03/10 09:05:44;;;;;;;2.90;2.70;;;;;;;;;;5032285;28;20042;-77
2022/03/10 09:08:10;;;;;;;4.55;3.20;;;;;;;;;;5035761;28;20056;-75
2022/03/10 09:10:36;;;;;;;4.45;3.28;;;;;;;;;;5013149;28;20431;-76
2022/03/10 09:13:02;;;;;;;4.28;3.88;;;;;;;;;;5034427;28;20048;-77
2022/03/10 09:15:28;;;;;;;5.00;4.00;;;;;;;;;;5008686;28;20048;-76
2022/03/10 09:17:54;;;;;;;3.17;2.85;;;;;;;;;;5024233;28;20046;-77
2022/03/10 09:20:22;;;;;;;2.83;2.63;;;;;;;;;;5019000;28;20038;-74
2022/03/10 09:22:48;;;;;;;4.30;3.90;;;;;;;;;;5021443;28;20034;-76
2022/03/10 09:25:14;;;;;;;3.40;3.20;;;;;;;;;;5026042;28;20045;-77
2022/03/10 09:27:43;;;;;;;4.03;3.72;;;;;;;;;;5022251;28;20160;-76
2022/03/10 09:30:10;;;;;;;3.42;3.13;;;;;;;;;;5025156;28;20034;-76
2022/03/10 09:32:36;;;;;;;4.55;3.45;;;;;;;;;;5025176;28;20049;-75
2022/03/10 09:35:06;;;;;;;3.20;3.00;;;;;;;;;;5028745;28;20117;-75
2022/03/10 09:37:32;;;;;;;3.10;2.80;;;;;;;;;;5026652;28;20072;-75
2022/03/10 09:39:58;;;;;;;6.53;3.35;;;;;;;;;;5031969;28;20517;-74
2022/03/10 09:42:28;;;;;;;3.50;3.28;;;;;;;;;;5032631;28;20045;-76
2022/03/10 09:44:56;;;;;;;3.10;2.80;;;;;;;;;;5029208;28;20594;-74
2022/03/10 09:47:22;;;;;;;2.70;2.60;;;;;;;;;;5033042;28;20049;-77
2022/03/10 09:49:48;;;;;;;5.25;3.08;;;;;;;;;;5029095;28;20075;-76
2022/03/10 09:52:15;;;;;;;3.85;3.15;;;;;;;;;;5032442;28;20029;-76
2022/03/10 09:54:41;;;;;;;2.58;2.38;;;;;;;;;;5013138;28;20041;-75
2022/03/10 09:57:08;;;;;;;2.50;2.40;;;;;;;;;;5030017;28;20126;-76
2022/03/10 09:59:46;;;;;;;3.15;2.85;;;;;;;;;;5013234;28;20128;-77
2022/03/10 10:02:12;;;;;;;2.53;2.42;;;;;;;;;;5030329;28;20069;-76
2022/03/10 10:04:41;;;;;;;3.00;2.80;;;;;;;;;;5013643;28;20049;-74
2022/03/10 10:07:07;;;;;;;2.40;2.30;;;;;;;;;;5029873;28;20267;-73
2022/03/10 10:09:43;;;;;;;2.83;2.63;;;;;;;;;;5010838;28;20057;-73
2022/03/10 10:12:09;;;;;;;5.60;2.58;;;;;;;;;;5027809;28;20494;-74
2022/03/10 10:14:42;;;;;;;3.28;2.05;;;;;;;;;;5012670;28;20298;-76
2022/03/10 10:17:08;;;;;;;3.55;3.25;;;;;;;;;;5030721;28;20041;-76
2022/03/10 10:19:36;;;;;;;3.72;2.80;;;;;;;;;;5030196;28;20053;-74
2022/03/10 10:22:13;;;;;;;7.05;4.10;;;;;;;;;;5026660;28;20041;-74
2022/03/10 10:24:39;;;;;;;12.43;3.50;;;;;;;;;;5014848;28;20041;-76
2022/03/10 10:27:15;;;;;;;3.30;3.10;;;;;;;;;;5011334;28;20052;-73
2022/03/10 10:29:45;;;;;;;6.30;3.97;;;;;;;;;;4992216;28;20064;-72
2022/03/10 10:32:11;;;;;;;3.60;3.20;;;;;;;;;;4973310;28;20156;-73
2022/03/10 10:34:37;;;;;;;3.40;3.20;;;;;;;;;;5010830;28;20132;-74
2022/03/10 10:37:03;;;;;;;4.75;3.10;;;;;;;;;;5010008;28;20052;-73
2022/03/10 10:39:29;;;;;;;3.78;3.47;;;;;;;;;;5010308;28;20041;-75
2022/03/10 10:41:55;;;;;;;3.70;3.40;;;;;;;;;;4992998;28;20041;-75
2022/03/10 10:44:23;;;;;;;3.25;2.92;;;;;;;;;;4994030;28;20049;-74
2022/03/10 10:46:54;;;;;;;3.83;3.42;;;;;;;;;;4993307;28;20160;-74
2022/03/10 10:49:20;;;;;;;2.80;2.60;;;;;;;;;;4975978;28;20049;-73
2022/03/10 10:51:47;;;;;;;3.08;2.88;;;;;;;;;;5026070;28;20128;-73
2022/03/10 10:54:25;;;;;;;3.50;3.05;;;;;;;;;;5012711;28;20100;-74
2022/03/10 10:56:52;;;;;;;2.63;2.47;;;;;;;;;;5025858;28;20053;-75
2022/03/10 10:59:26;;;;;;;3.28;3.03;;;;;;;;;;5028377;28;20114;-74
2022/03/10 11:02:02;;;;;;;2.70;2.50;;;;;;;;;;5027051;28;20588;-74
2022/03/10 11:04:32;;;;;;;3.58;3.28;;;;;;;;;;5027267;28;20502;-75
2022/03/10 11:07:00;;;;;;;4.20;3.47;;;;;;;;;;5010720;28;20041;-77
2022/03/10 11:09:42;;;;;;;2.78;2.67;;;;;;;;;;5012154;28;20061;-76
2022/03/10 11:12:09;;;;;;;;;;;;;;;;;;4995812;28;20033;-74
2022/03/10 11:14:35;;;;;;;3.40;3.10;;;;;;;;;;5028329;28;20315;-76
2022/03/10 11:17:08;;;;;;;3.35;3.05;;;;;;;;;;5011996;28;20041;-75
2022/03/10 11:19:36;;;;;;;2.95;2.75;;;;;;;;;;5029191;28;20157;-75
2022/03/10 11:22:21;;;;;;;3.80;3.50;;;;;;;;;;5025626;28;20067;-75
2022/03/10 11:25:06;;;;;;;2.80;2.60;;;;;;;;;;5008905;28;20503;-71
2022/03/10 11:27:35;;;;;;;4.78;3.00;;;;;;;;;;5009220;28;20150;-73
2022/03/10 11:30:02;;;;;;;3.65;3.35;;;;;;;;;;5017059;28;20071;-72
2022/03/10 11:32:29;;;;;;;3.10;2.50;;;;;;;;;;5021259;28;20037;-73
2022/03/10 11:34:58;;;;;;;5.88;3.80;;;;;;;;;;5001005;28;20243;-74
2022/03/10 11:37:45;;;;;;;4.18;3.22;;;;;;;;;;5015630;28;20060;-75
2022/03/10 11:40:11;;;;;;;3.17;2.97;;;;;;;;;;5015589;28;20096;-72
2022/03/10 11:42:41;;;;;;;5.03;2.80;;;;;;;;;;5027953;28;20047;-75
2022/03/10 11:45:11;;;;;;;2.40;2.20;;;;;;;;;;5008042;28;20064;-74
2022/03/10 11:47:37;;;;;;;3.65;3.03;;;;;;;;;;5025795;28;20033;-74
2022/03/10 11:50:22;;;;;;;2.72;2.55;;;;;;;;;;5007251;28;20060;-74
2022/03/10 11:53:01;;;;;;;3.03;2.83;;;;;;;;;;5025931;28;20053;-74
2022/03/10 11:55:43;;;;;;;3.00;2.67;;;;;;;;;;5026603;28;20045;-75
2022/03/10 11:58:10;;;;;;;4.32;3.00;;;;;;;;;;5012640;28;20049;-78
2022/03/10 12:00:40;;;;;;;3.03;2.80;;;;;;;;;;5010441;28;20052;-77
2022/03/10 12:03:07;;;;;;;3.17;2.97;;;;;;;;;;5027638;28;20128;-76
2022/03/10 12:05:52;;;;;;;2.55;2.45;;;;;;;;;;5027476;28;20506;-77
2022/03/10 12:08:19;;;;;;;3.40;2.38;;;;;;;;;;5008773;28;20505;-76
2022/03/10 12:10:45;;;;;;;6.53;2.03;;;;;;;;;;5024175;28;20040;-77
2022/03/10 12:13:30;;;;;;;2.70;2.60;;;;;;;;;;5009953;28;20140;-76
2022/03/10 12:15:56;;;;;;;4.28;3.63;;;;;;;;;;5018430;28;20137;-76
2022/03/10 12:18:24;;;;;;;2.95;2.75;;;;;;;;;;5006128;28;20120;-75
2022/03/10 12:20:53;;;;;;;6.53;2.88;;;;;;;;;;5014867;28;20425;-77
2022/03/10 12:23:19;;;;;;;5.30;3.08;;;;;;;;;;5019901;28;20062;-74
2022/03/10 12:25:46;;;;;;;2.83;2.58;;;;;;;;;;5026452;28;20053;-75
2022/03/10 12:28:21;;;;;;;3.22;2.85;;;;;;;;;;5015311;28;20053;-75
2022/03/10 12:30:46;;;;;;;3.90;3.60;;;;;;;;;;5005864;28;20048;-75
2022/03/10 12:33:13;;;;;;;2.92;2.72;;;;;;;;;;5025567;28;20037;-74
2022/03/10 12:35:40;;;;;;;2.80;2.60;;;;;;;;;;5007929;28;20057;-75
2022/03/10 12:38:06;;;;;;;1.95;1.85;;;;;;;;;;5025397;28;20187;-75
2022/03/10 12:40:33;;;;;;;3.47;2.00;;;;;;;;;;5005610;28;20073;-75
2022/03/10 12:42:59;;;;;;;2.55;2.35;;;;;;;;;;5024359;28;20033;-74
2022/03/10 12:45:25;;;;;;;2.13;2.03;;;;;;;;;;5028572;28;20575;-75
2022/03/10 12:48:00;;;;;;;2.40;2.20;;;;;;;;;;5029707;28;20049;-76
2022/03/10 12:50:26;;;;;;;2.80;2.10;;;;;;;;;;5030618;28;20037;-75
2022/03/10 12:52:53;;;;;;;2.80;2.42;;;;;;;;;;5033630;28;20048;-75
2022/03/10 12:55:26;;;;;;;2.85;2.65;;;;;;;;;;5028341;28;20053;-76
2022/03/10 12:57:58;;;;;;;2.65;2.45;;;;;;;;;;5027818;28;20417;-75
2022/03/10 13:00:25;;;;;;;3.10;2.72;;;;;;;;;;5029644;28;20127;-77
2022/03/10 13:03:00;;;;;;;2.97;2.67;;;;;;;;;;5033387;28;20033;-76
2022/03/10 13:05:27;;;;;;;3.22;2.75;;;;;;;;;;5030560;28;20041;-75
2022/03/10 13:07:53;;;;;;;3.72;3.50;;;;;;;;;;5012049;28;20041;-74
2022/03/10 13:10:20;;;;;;;4.30;2.40;;;;;;;;;;5028712;28;20132;-74
2022/03/10 13:12:48;;;;;;;2.78;2.60;;;;;;;;;;5032224;28;20092;-75
2022/03/10 13:15:24;;;;;;;2.65;2.45;;;;;;;;;;5032346;28;20041;-75
2022/03/10 13:17:50;;;;;;;5.82;2.75;;;;;;;;;;5031973;28;20627;-75
2022/03/10 13:20:20;;;;;;;3.00;2.80;;;;;;;;;;5030024;28;20124;-75
2022/03/10 13:22:49;;;;;;;2.80;2.60;;;;;;;;;;5034923;28;20044;-77
2022/03/10 13:25:15;;;;;;;4.32;3.80;;;;;;;;;;5030760;28;20136;-75
2022/03/10 13:27:43;;;;;;;5.50;3.20;;;;;;;;;;5031828;28;20037;-77
2022/03/10 13:30:15;;;;;;;2.80;2.60;;;;;;;;;;5033056;28;20540;-77
2022/03/10 13:32:42;;;;;;;2.50;2.30;;;;;;;;;;5040092;28;20038;-75
2022/03/10 13:35:08;;;;;;;2.30;2.20;;;;;;;;;;5012955;28;20061;-75
2022/03/10 13:37:34;;;;;;;2.00;1.90;;;;;;;;;;5026014;28;20046;-75
2022/03/10 13:40:02;;;;;;;3.40;2.45;;;;;;;;;;5027211;28;20092;-75
2022/03/10 13:42:32;;;;;;;3.80;2.40;;;;;;;;;;5026111;28;20041;-75
2022/03/10 13:45:08;;;;;;;3.00;2.78;;;;;;;;;;5026337;28;20069;-74
2022/03/10 13:47:48;;;;;;;3.90;2.58;;;;;;;;;;4994669;28;20135;-75
2022/03/10 13:50:20;;;;;;;3.38;2.72;;;;;;;;;;5026816;28;20128;-76
2022/03/10 13:52:46;;;;;;;5.57;3.45;;;;;;;;;;5027588;28;20052;-75
2022/03/10 13:55:12;;;;;;;3.47;2.97;;;;;;;;;;5027230;28;20033;-75
2022/03/10 13:57:39;;;;;;;3.65;3.20;;;;;;;;;;5028225;28;20052;-74
2022/03/10 14:00:05;;;;;;;4.88;3.22;;;;;;;;;;5009693;28;20726;-75
2022/03/10 14:02:31;;;;;;;3.03;2.78;;;;;;;;;;5028008;28;20045;-74
2022/03/10 14:04:58;;;;;;;2.90;2.70;;;;;;;;;;5028809;28;20505;-73
2022/03/10 14:07:24;;;;;;;3.35;3.05;;;;;;;;;;5010042;28;20045;-73
2022/03/10 14:09:51;;;;;;;7.43;3.80;;;;;;;;;;5024952;28;20049;-74
2022/03/10 14:12:22;;;;;;;4.18;3.40;;;;;;;;;;5027172;28;20041;-74
2022/03/10 14:14:49;;;;;;;;;;;;;;;;;;5027663;28;20041;-75
2022/03/10 14:17:16;;;;;;;8.65;3.45;;;;;;;;;;5027509;28;20428;-74
2022/03/10 14:19:42;;;;;;;6.32;3.75;;;;;;;;;;5026918;28;20124;-75
2022/03/10 14:22:15;;;;;;;4.45;3.80;;;;;;;;;;5025691;28;20687;-75
2022/03/10 14:24:41;;;;;;;7.93;4.35;;;;;;;;;;5027336;28;20057;-74
2022/03/10 14:27:08;;;;;;;11.68;3.85;;;;;;;;;;5027278;28;20827;-75
2022/03/10 14:29:40;;;;;;;6.00;4.20;;;;;;;;;;5024331;28;20176;-75
2022/03/10 14:32:06;;;;;;;8.02;5.00;;;;;;;;;;5028598;28;20509;-74
2022/03/10 14:34:33;;;;;;;5.20;3.60;;;;;;;;;;5028865;28;20132;-74
2022/03/10 14:36:59;;;;;;;5.55;3.60;;;;;;;;;;5009860;28;20037;-75
2022/03/10 14:39:25;;;;;;;5.30;3.63;;;;;;;;;;5028379;28;20056;-76
2022/03/10 14:41:51;;;;;;;5.10;3.40;;;;;;;;;;5009492;28;20029;-75
2022/03/10 14:44:17;;;;;;;7.35;3.13;;;;;;;;;;5026325;28;20044;-75
2022/03/10 14:46:43;;;;;;;7.25;3.42;;;;;;;;;;5027208;28;20033;-75